Time;durP1;ratioP1;P1;durP2;ratioP2;P2;SDS_P1;SDS_P2;PMS_P1;PMS_P2;Temp;Humidity;BMP_temperature;BMP_pressure;BME280_temperature;BME280_humidity;BME280_pressure;Samples;Min_cycle;Max_cycle;Signal;HPM_P1;HPM_P2
2022/08/03 00:02:37;;;;;;;0.68;0.60;;;22.70;56.90;;;;;;6200697;28;20460;-68
2022/08/03 00:05:38;;;;;;;1.08;0.60;;;22.70;56.90;;;;;;6246924;28;20133;-68
2022/08/03 00:08:39;;;;;;;0.60;0.50;;;22.70;57.00;;;;;;6242278;28;20476;-69
2022/08/03 00:11:40;;;;;;;0.50;0.50;;;22.70;56.90;;;;;;6219754;28;20041;-68
2022/08/03 00:14:40;;;;;;;0.98;0.60;;;22.70;56.90;;;;;;6227748;28;20024;-68
2022/08/03 00:17:41;;;;;;;0.70;0.60;;;22.70;56.90;;;;;;6244818;28;20040;-69
2022/08/03 00:20:42;;;;;;;0.52;0.52;;;22.70;57.00;;;;;;6226768;28;20026;-69
2022/08/03 00:23:42;;;;;;;0.82;0.50;;;22.70;56.90;;;;;;6218383;28;20042;-68
2022/08/03 00:26:43;;;;;;;1.15;0.70;;;22.70;56.90;;;;;;6243925;28;20037;-68
2022/08/03 00:29:44;;;;;;;0.70;0.70;;;22.70;56.90;;;;;;6236804;28;20025;-69
2022/08/03 00:32:44;;;;;;;0.60;0.60;;;22.70;56.90;;;;;;6219914;28;20018;-68
2022/08/03 00:35:45;;;;;;;1.30;0.60;;;22.70;57.00;;;;;;6219202;28;20026;-67
2022/08/03 00:38:45;;;;;;;0.70;0.60;;;22.70;56.90;;;;;;6218581;28;20147;-68
2022/08/03 00:41:47;;;;;;;0.80;0.60;;;22.70;57.00;;;;;;6242071;28;20025;-68
2022/08/03 00:44:48;;;;;;;0.95;0.77;;;22.70;56.90;;;;;;6238217;28;20072;-68
2022/08/03 00:47:49;;;;;;;0.63;0.50;;;22.70;56.90;;;;;;6219672;28;20416;-69
2022/08/03 00:50:50;;;;;;;0.70;0.60;;;22.70;56.90;;;;;;6232610;28;20396;-68
2022/08/03 00:53:50;;;;;;;1.08;0.75;;;22.70;56.90;;;;;;6243898;28;20032;-69
2022/08/03 00:56:51;;;;;;;0.90;0.70;;;22.70;57.00;;;;;;6221591;28;20065;-69
2022/08/03 00:59:52;;;;;;;0.60;0.50;;;22.70;56.90;;;;;;6223484;28;20053;-69
2022/08/03 01:02:53;;;;;;;0.60;0.60;;;22.70;57.00;;;;;;6217469;28;20030;-68
2022/08/03 01:06:05;;;;;;;0.75;0.60;;;22.70;57.00;;;;;;6228480;28;20537;-68
2022/08/03 01:09:34;;;;;;;0.70;0.60;;;22.70;56.90;;;;;;6242772;28;20037;-67
2022/08/03 01:12:43;;;;;;;0.80;0.50;;;22.70;57.00;;;;;;6202305;28;20022;-68
2022/08/03 01:15:57;;;;;;;0.85;0.60;;;22.70;57.00;;;;;;6227238;28;20032;-68
2022/08/03 01:18:58;;;;;;;0.73;0.50;;;22.70;57.00;;;;;;6243605;28;20056;-69
2022/08/03 01:22:23;;;;;;;0.55;0.55;;;22.70;57.00;;;;;;6224820;28;20137;-68
2022/08/03 01:25:24;;;;;;;0.65;0.60;;;22.70;56.90;;;;;;6223679;28;20053;-68
2022/08/03 01:28:50;;;;;;;0.43;0.40;;;22.70;57.00;;;;;;6240191;28;20029;-68
2022/08/03 01:31:57;;;;;;;0.93;0.73;;;22.70;56.90;;;;;;6223648;28;20118;-69
2022/08/03 01:35:07;;;;;;;0.98;0.68;;;22.70;57.00;;;;;;6217467;28;20030;-69
2022/08/03 01:38:22;;;;;;;0.63;0.60;;;22.70;57.00;;;;;;6216311;28;20060;-68
2022/08/03 01:41:32;;;;;;;1.02;0.80;;;22.70;57.00;;;;;;6228201;28;20030;-68
2022/08/03 01:44:37;;;;;;;0.82;0.52;;;22.70;57.00;;;;;;6241644;28;20034;-68
2022/08/03 01:47:39;;;;;;;0.50;0.50;;;22.70;57.00;;;;;;6219205;28;20030;-69
2022/08/03 01:50:41;;;;;;;1.38;0.68;;;22.70;57.00;;;;;;6220661;28;20021;-69
2022/08/03 01:53:42;;;;;;;0.70;0.70;;;22.70;57.00;;;;;;6239701;28;20087;-67
2022/08/03 01:56:44;;;;;;;0.88;0.70;;;22.70;57.00;;;;;;6230046;28;20403;-69
2022/08/03 01:59:47;;;;;;;1.00;0.50;;;22.70;57.00;;;;;;6217027;28;20052;-68
2022/08/03 02:02:49;;;;;;;0.82;0.80;;;22.70;57.00;;;;;;6236428;28;20427;-68
2022/08/03 02:05:52;;;;;;;0.80;0.60;;;22.70;57.00;;;;;;6237895;28;20051;-68
2022/08/03 02:08:54;;;;;;;0.82;0.57;;;22.70;57.00;;;;;;6216979;28;20018;-67
2022/08/03 02:11:56;;;;;;;0.65;0.50;;;22.70;57.00;;;;;;6227883;28;20035;-68
2022/08/03 02:14:58;;;;;;;1.05;0.52;;;22.70;57.00;;;;;;6240522;28;20079;-69
2022/08/03 02:18:02;;;;;;;1.52;0.50;;;22.70;57.00;;;;;;6226366;28;20022;-68
2022/08/03 02:21:03;;;;;;;0.98;0.70;;;22.70;57.00;;;;;;6224021;28;20053;-69
2022/08/03 02:24:05;;;;;;;0.90;0.57;;;22.70;57.00;;;;;;6243749;28;20141;-69
2022/08/03 02:27:18;;;;;;;0.50;0.50;;;22.70;57.00;;;;;;6230376;28;20034;-68
2022/08/03 02:30:20;;;;;;;0.90;0.68;;;22.70;57.00;;;;;;6221192;28;20137;-69
2022/08/03 02:33:29;;;;;;;1.13;0.70;;;22.70;57.00;;;;;;6240768;28;20121;-69
2022/08/03 02:36:33;;;;;;;0.85;0.60;;;22.70;57.00;;;;;;6244119;28;20472;-69
2022/08/03 02:39:35;;;;;;;0.77;0.60;;;22.70;57.00;;;;;;6245379;28;20021;-68
2022/08/03 02:42:38;;;;;;;0.93;0.77;;;22.70;57.00;;;;;;6231881;28;20397;-69
2022/08/03 02:45:43;;;;;;;0.95;0.70;;;22.70;57.00;;;;;;6220595;28;20032;-68
2022/08/03 02:48:46;;;;;;;0.70;0.57;;;22.70;57.00;;;;;;6242971;28;20045;-67
2022/08/03 02:51:49;;;;;;;1.63;0.77;;;22.70;57.00;;;;;;6240570;28;20563;-68
2022/08/03 02:54:53;;;;;;;1.02;0.75;;;22.70;57.00;;;;;;6219131;28;20353;-68
2022/08/03 02:57:56;;;;;;;0.60;0.60;;;22.70;57.00;;;;;;6233767;28;20425;-68
2022/08/03 03:00:57;;;;;;;1.40;0.70;;;22.70;57.00;;;;;;6227601;28;20054;-68
2022/08/03 03:03:59;;;;;;;0.82;0.70;;;22.70;57.00;;;;;;6238399;28;20494;-68
2022/08/03 03:07:00;;;;;;;0.63;0.50;;;22.70;57.00;;;;;;6240223;28;20029;-68
2022/08/03 03:10:03;;;;;;;1.00;0.60;;;22.70;57.00;;;;;;6219284;28;20112;-68
2022/08/03 03:13:05;;;;;;;0.60;0.60;;;22.70;57.00;;;;;;6232583;28;20029;-69
2022/08/03 03:16:07;;;;;;;0.80;0.70;;;22.70;57.00;;;;;;6245498;28;20052;-68
2022/08/03 03:19:11;;;;;;;0.70;0.70;;;22.70;57.00;;;;;;6223771;28;20030;-68
2022/08/03 03:22:14;;;;;;;0.67;0.67;;;22.70;57.00;;;;;;6223873;28;20088;-68
2022/08/03 03:25:16;;;;;;;0.75;0.75;;;22.70;57.00;;;;;;6232216;28;20280;-68
2022/08/03 03:28:16;;;;;;;1.88;0.77;;;22.70;57.00;;;;;;6219611;28;20036;-67
2022/08/03 03:31:17;;;;;;;0.82;0.68;;;22.70;57.00;;;;;;6218267;28;20029;-67
2022/08/03 03:34:18;;;;;;;0.55;0.50;;;22.70;57.00;;;;;;6218162;28;20030;-68
2022/08/03 03:37:19;;;;;;;1.02;0.80;;;22.70;57.00;;;;;;6221121;28;20018;-68
2022/08/03 03:40:21;;;;;;;0.73;0.68;;;22.70;57.00;;;;;;6242754;28;20040;-68
2022/08/03 03:43:23;;;;;;;0.63;0.52;;;22.70;57.00;;;;;;6232829;28;20046;-68
2022/08/03 03:46:24;;;;;;;0.90;0.70;;;22.70;57.00;;;;;;6219312;28;20041;-69
2022/08/03 03:49:25;;;;;;;0.80;0.60;;;22.70;57.00;;;;;;6237930;28;20091;-68
2022/08/03 03:52:26;;;;;;;0.60;0.52;;;22.70;57.00;;;;;;6242826;28;20113;-66
2022/08/03 03:55:27;;;;;;;0.80;0.70;;;22.70;57.00;;;;;;6220727;28;20033;-68
2022/08/03 03:58:29;;;;;;;0.90;0.60;;;22.70;57.00;;;;;;6228745;28;20109;-68
2022/08/03 04:01:29;;;;;;;0.65;0.60;;;22.70;57.00;;;;;;6219399;28;20515;-68
2022/08/03 04:11:35;;;;;;;0.50;0.50;;;22.70;57.00;;;;;;6218959;28;20116;-67
2022/08/03 04:14:37;;;;;;;0.68;0.60;;;22.70;57.00;;;;;;6236268;28;20022;-68
2022/08/03 04:17:40;;;;;;;0.85;0.75;;;22.70;57.00;;;;;;6244192;28;20049;-68
2022/08/03 04:20:44;;;;;;;0.60;0.60;;;22.70;57.00;;;;;;6220181;28;20404;-68
2022/08/03 04:23:48;;;;;;;0.83;0.50;;;22.70;57.00;;;;;;6228255;28;20642;-68
2022/08/03 04:26:50;;;;;;;1.30;0.70;;;22.70;57.00;;;;;;6244840;28;20021;-67
2022/08/03 04:29:53;;;;;;;0.77;0.65;;;22.70;57.00;;;;;;6227175;28;20018;-68
2022/08/03 04:32:56;;;;;;;1.08;0.75;;;22.70;57.00;;;;;;6218472;28;20037;-68
2022/08/03 04:35:59;;;;;;;0.68;0.68;;;22.70;57.00;;;;;;6211838;28;20034;-68
2022/08/03 04:39:09;;;;;;;0.75;0.60;;;22.70;57.00;;;;;;6225899;28;20021;-68
2022/08/03 04:42:12;;;;;;;0.50;0.43;;;22.70;57.00;;;;;;6242246;28;20080;-66
2022/08/03 04:45:14;;;;;;;0.50;0.50;;;22.70;57.00;;;;;;6224612;28;20052;-66
2022/08/03 04:48:16;;;;;;;0.95;0.65;;;22.70;57.00;;;;;;6219592;28;20416;-67
2022/08/03 04:51:17;;;;;;;0.45;0.45;;;22.70;57.00;;;;;;6242551;28;20021;-67
2022/08/03 04:54:17;;;;;;;0.47;0.47;;;22.70;57.00;;;;;;6233370;28;20099;-68
2022/08/03 04:57:18;;;;;;;0.95;0.63;;;22.70;57.00;;;;;;6217337;28;20033;-68
2022/08/03 05:00:37;;;;;;;0.70;0.70;;;22.70;57.00;;;;;;6227427;28;20473;-68
2022/08/03 05:03:37;;;;;;;0.60;0.60;;;22.70;57.00;;;;;;6196612;28;20064;-68
2022/08/03 05:06:38;;;;;;;0.55;0.50;;;22.70;57.00;;;;;;6242036;28;20021;-67
2022/08/03 05:09:39;;;;;;;0.70;0.60;;;22.70;57.00;;;;;;6232073;28;20032;-67
2022/08/03 05:12:40;;;;;;;0.68;0.60;;;22.70;57.00;;;;;;6217290;28;20480;-68
2022/08/03 05:15:41;;;;;;;0.57;0.57;;;22.70;57.00;;;;;;6233853;28;20050;-67
2022/08/03 05:18:42;;;;;;;0.90;0.60;;;22.70;57.00;;;;;;6241153;28;20032;-68
2022/08/03 05:21:42;;;;;;;0.63;0.57;;;22.70;57.00;;;;;;6218009;28;20472;-68
2022/08/03 05:24:43;;;;;;;0.65;0.60;;;22.70;57.00;;;;;;6217237;28;20053;-68
2022/08/03 05:27:43;;;;;;;3.97;0.57;;;22.70;57.00;;;;;;6217337;28;20472;-68
2022/08/03 05:30:45;;;;;;;3.38;0.75;;;22.80;58.10;;;;;;6217025;28;20022;-67
2022/08/03 05:33:47;;;;;;;1.05;0.60;;;22.70;57.50;;;;;;6217099;28;20030;-66
2022/08/03 05:36:48;;;;;;;3.97;0.45;;;22.80;58.10;;;;;;6215918;28;20046;-66
2022/08/03 05:39:48;;;;;;;3.60;0.60;;;22.80;57.90;;;;;;6224349;28;20436;-67
2022/08/03 05:42:49;;;;;;;0.70;0.52;;;22.80;57.60;;;;;;6239672;28;20511;-67
2022/08/03 05:45:49;;;;;;;0.60;0.55;;;22.80;57.60;;;;;;6226698;28;20037;-66
2022/08/03 05:48:50;;;;;;;2.30;0.55;;;22.80;57.50;;;;;;6217276;28;20110;-66
2022/08/03 05:51:51;;;;;;;0.85;0.55;;;22.80;57.50;;;;;;6243083;28;20112;-66
2022/08/03 05:54:52;;;;;;;1.58;0.60;;;22.80;57.40;;;;;;6239589;28;20021;-66
2022/08/03 05:57:52;;;;;;;1.38;0.52;;;22.80;57.40;;;;;;6222269;28;20054;-67
2022/08/03 06:00:53;;;;;;;0.80;0.60;;;22.80;57.30;;;;;;6221949;28;20038;-67
2022/08/03 06:03:54;;;;;;;2.22;0.68;;;22.70;57.30;;;;;;6225172;28;20038;-66
2022/08/03 06:06:54;;;;;;;1.10;0.70;;;22.70;57.20;;;;;;6245557;28;20032;-66
2022/08/03 06:09:55;;;;;;;0.63;0.55;;;22.80;57.30;;;;;;6230829;28;20022;-66
2022/08/03 06:12:56;;;;;;;0.80;0.50;;;22.70;57.20;;;;;;6249177;28;20029;-67
2022/08/03 06:15:56;;;;;;;0.80;0.60;;;22.80;57.30;;;;;;6228902;28;20034;-66
2022/08/03 06:18:57;;;;;;;0.80;0.60;;;22.80;57.30;;;;;;6200772;28;20037;-67
2022/08/03 06:21:57;;;;;;;1.00;0.70;;;22.70;57.10;;;;;;6238435;28;20577;-67
2022/08/03 06:24:58;;;;;;;0.93;0.63;;;22.80;57.20;;;;;;6247236;28;20034;-66
2022/08/03 06:27:59;;;;;;;0.65;0.60;;;22.80;57.20;;;;;;6224831;28;20428;-66
2022/08/03 06:31:00;;;;;;;0.75;0.60;;;22.80;57.20;;;;;;6233953;28;20022;-66
2022/08/03 06:34:04;;;;;;;1.88;0.75;;;22.70;57.10;;;;;;6224143;28;20029;-66
2022/08/03 06:37:05;;;;;;;1.10;0.67;;;22.80;57.30;;;;;;6223411;28;20026;-67
2022/08/03 06:40:06;;;;;;;1.30;0.70;;;22.80;57.20;;;;;;6225608;28;20277;-67
2022/08/03 06:43:07;;;;;;;1.10;0.75;;;22.80;57.20;;;;;;6248744;28;20392;-67
2022/08/03 06:46:08;;;;;;;1.27;0.70;;;22.70;57.10;;;;;;6239244;28;20428;-67
2022/08/03 06:49:08;;;;;;;0.68;0.60;;;22.80;57.20;;;;;;6224460;28;20076;-66
2022/08/03 06:52:09;;;;;;;1.05;0.73;;;22.70;57.10;;;;;;6239289;28;20036;-66
2022/08/03 06:55:10;;;;;;;0.60;0.50;;;22.70;57.10;;;;;;6248989;28;20025;-66
2022/08/03 06:58:10;;;;;;;0.70;0.60;;;22.80;57.20;;;;;;6222888;28;20503;-66
2022/08/03 07:01:11;;;;;;;0.70;0.60;;;22.70;57.10;;;;;;6227478;28;20033;-66
2022/08/03 07:04:12;;;;;;;0.80;0.70;;;22.70;57.10;;;;;;6248320;28;20033;-66
2022/08/03 07:07:12;;;;;;;0.85;0.65;;;22.80;57.20;;;;;;6233582;28;20038;-66
2022/08/03 07:10:13;;;;;;;0.82;0.60;;;22.80;57.20;;;;;;6223076;28;20485;-67
2022/08/03 07:13:14;;;;;;;1.35;0.70;;;22.80;57.20;;;;;;6246075;28;20067;-66
2022/08/03 07:16:14;;;;;;;1.10;0.80;;;22.70;57.10;;;;;;6242648;28;20097;-66
2022/08/03 07:19:15;;;;;;;1.92;0.60;;;22.80;57.10;;;;;;6223737;28;20114;-66
2022/08/03 07:22:16;;;;;;;0.52;0.52;;;22.70;57.00;;;;;;6236715;28;20041;-65
2022/08/03 07:25:17;;;;;;;0.98;0.60;;;22.70;57.10;;;;;;6248130;28;20037;-66
2022/08/03 07:28:18;;;;;;;0.63;0.50;;;22.70;57.10;;;;;;6227134;28;20033;-68
2022/08/03 07:31:18;;;;;;;0.88;0.60;;;22.70;57.00;;;;;;6223043;28;20112;-67
2022/08/03 07:34:19;;;;;;;1.05;0.60;;;22.70;57.10;;;;;;6223482;28;20384;-67
2022/08/03 07:37:20;;;;;;;0.98;0.77;;;22.70;57.00;;;;;;6223478;28;20021;-66
2022/08/03 07:40:21;;;;;;;1.05;0.80;;;22.70;57.10;;;;;;6223004;28;20030;-65
2022/08/03 07:43:23;;;;;;;1.00;0.57;;;22.70;57.10;;;;;;6241249;28;20044;-66
2022/08/03 07:46:23;;;;;;;1.02;0.60;;;22.70;57.00;;;;;;6245085;28;20057;-66
2022/08/03 07:49:24;;;;;;;1.33;0.68;;;22.70;57.00;;;;;;6222986;28;20030;-66
2022/08/03 07:55:44;;;;;;;0.60;0.50;;;22.70;57.00;;;;;;6247070;28;20499;-66
2022/08/03 07:58:44;;;;;;;0.98;0.57;;;22.70;57.00;;;;;;6227128;28;20076;-66
2022/08/03 08:01:45;;;;;;;0.60;0.50;;;22.70;57.00;;;;;;6226325;28;20028;-66
2022/08/03 08:04:45;;;;;;;0.60;0.52;;;22.70;57.00;;;;;;6247054;28;20041;-67
2022/08/03 08:07:46;;;;;;;0.70;0.60;;;22.70;57.00;;;;;;6235817;28;20045;-66
2022/08/03 08:10:47;;;;;;;0.85;0.70;;;22.70;57.00;;;;;;6222387;28;20018;-67
2022/08/03 08:13:48;;;;;;;0.60;0.60;;;22.70;57.00;;;;;;6240336;28;20063;-66
2022/08/03 08:16:49;;;;;;;0.70;0.52;;;22.70;57.00;;;;;;6244315;28;20380;-67
2022/08/03 08:19:49;;;;;;;0.80;0.50;;;22.70;57.10;;;;;;6222395;28;20018;-67
2022/08/03 08:22:50;;;;;;;1.23;0.50;;;22.70;57.10;;;;;;6231692;28;20045;-66
2022/08/03 08:25:51;;;;;;;0.70;0.63;;;22.70;57.00;;;;;;6246467;28;20471;-66
2022/08/03 08:28:52;;;;;;;0.75;0.60;;;22.70;57.00;;;;;;6229079;28;20465;-66
2022/08/03 08:31:53;;;;;;;1.40;0.50;;;22.70;57.10;;;;;;6221394;28;20022;-65
2022/08/03 08:34:54;;;;;;;0.68;0.43;;;22.70;57.00;;;;;;6222049;28;20070;-66
2022/08/03 08:37:54;;;;;;;0.68;0.52;;;22.70;57.10;;;;;;6230307;28;20100;-66
2022/08/03 08:40:55;;;;;;;0.40;0.40;;;22.70;57.10;;;;;;6246114;28;20024;-66
2022/08/03 08:43:57;;;;;;;0.60;0.60;;;22.70;57.00;;;;;;6230268;28;20116;-66
2022/08/03 08:47:01;;;;;;;0.52;0.50;;;22.70;57.00;;;;;;6221626;28;20560;-67
2022/08/03 08:50:03;;;;;;;0.50;0.50;;;22.70;57.00;;;;;;6244934;28;20427;-66
2022/08/03 08:53:06;;;;;;;0.60;0.60;;;22.70;57.10;;;;;;6238638;28;20057;-66
2022/08/03 08:56:11;;;;;;;1.15;0.60;;;22.70;57.10;;;;;;6221344;28;20429;-67
2022/08/03 08:59:12;;;;;;;;;;;22.70;57.00;;;;;;6237849;28;20036;-66
2022/08/03 09:02:13;;;;;;;0.60;0.60;;;22.70;57.00;;;;;;6208135;28;19906;-67
2022/08/03 09:05:16;;;;;;;0.50;0.50;;;22.70;57.00;;;;;;6243938;28;20460;-66
2022/08/03 09:08:17;;;;;;;0.70;0.57;;;22.70;57.10;;;;;;6238808;28;20396;-67
2022/08/03 09:11:22;;;;;;;0.57;0.40;;;22.70;57.70;;;;;;6221113;28;20494;-66
2022/08/03 09:14:23;;;;;;;0.80;0.77;;;22.70;57.00;;;;;;6236440;28;20476;-66
2022/08/03 09:17:24;;;;;;;0.63;0.52;;;22.70;57.10;;;;;;6245458;28;20026;-66
2022/08/03 09:20:26;;;;;;;0.70;0.57;;;22.70;57.10;;;;;;6222240;28;20022;-65
2022/08/03 09:23:53;;;;;;;0.50;0.43;;;22.70;57.00;;;;;;6225164;28;20553;-65
2022/08/03 09:26:53;;;;;;;0.38;0.38;;;22.70;57.00;;;;;;6220691;28;20026;-66
2022/08/03 09:29:54;;;;;;;0.73;0.55;;;22.70;57.00;;;;;;6219246;28;20681;-66
2022/08/03 09:33:03;;;;;;;0.30;0.30;;;22.70;57.10;;;;;;6219622;28;20092;-67
2022/08/03 09:36:04;;;;;;;0.63;0.40;;;22.70;57.00;;;;;;6220642;28;20202;-66
2022/08/03 09:39:09;;;;;;;0.40;0.40;;;22.70;57.00;;;;;;6230275;28;20018;-66
2022/08/03 09:42:12;;;;;;;0.50;0.50;;;22.70;57.00;;;;;;6245014;28;20386;-67
2022/08/03 09:45:25;;;;;;;0.40;0.40;;;22.70;57.00;;;;;;6225878;28;20052;-66
2022/08/03 09:48:33;;;;;;;0.65;0.50;;;22.70;57.00;;;;;;6223488;28;20109;-66
2022/08/03 09:51:34;;;;;;;0.50;0.47;;;22.70;57.10;;;;;;6244967;28;20029;-66
2022/08/03 09:54:34;;;;;;;0.30;0.30;;;22.70;57.00;;;;;;6233481;28;20065;-67
2022/08/03 09:57:36;;;;;;;0.50;0.50;;;22.70;57.10;;;;;;6220348;28;20376;-66
2022/08/03 10:00:57;;;;;;;0.40;0.40;;;22.70;57.00;;;;;;6227845;28;20022;-66
2022/08/03 10:03:58;;;;;;;0.50;0.50;;;22.70;57.10;;;;;;6205517;28;20435;-66
2022/08/03 10:07:08;;;;;;;0.55;0.55;;;22.70;57.00;;;;;;6244056;28;20060;-66
2022/08/03 10:10:09;;;;;;;0.40;0.40;;;22.70;57.00;;;;;;6231143;28;20018;-66
2022/08/03 10:13:12;;;;;;;0.57;0.55;;;22.70;57.00;;;;;;6220458;28;20029;-66
2022/08/03 10:16:13;;;;;;;0.50;0.40;;;22.70;57.00;;;;;;6242161;28;20086;-66
2022/08/03 10:19:15;;;;;;;0.60;0.40;;;22.70;57.00;;;;;;6239921;28;20021;-66
2022/08/03 10:22:20;;;;;;;0.50;0.50;;;22.70;57.00;;;;;;6219547;28;20061;-67
2022/08/03 10:25:21;;;;;;;0.47;0.45;;;22.70;57.00;;;;;;6233583;28;20462;-66
2022/08/03 10:28:23;;;;;;;0.40;0.40;;;22.70;57.00;;;;;;6244771;28;20022;-67
2022/08/03 10:31:24;;;;;;;0.40;0.40;;;22.70;57.00;;;;;;6222975;28;20022;-66
2022/08/03 10:34:27;;;;;;;0.50;0.50;;;22.70;57.00;;;;;;6219772;28;20045;-66
2022/08/03 10:37:31;;;;;;;0.43;0.43;;;22.70;57.00;;;;;;6223284;28;20071;-66
2022/08/03 10:40:32;;;;;;;0.40;0.40;;;22.70;57.00;;;;;;6236846;28;20053;-65
2022/08/03 10:43:49;;;;;;;0.60;0.40;;;22.70;57.00;;;;;;6248789;28;20069;-67
2022/08/03 10:46:50;;;;;;;0.30;0.30;;;22.70;57.00;;;;;;6225568;28;20034;-66
2022/08/03 10:49:51;;;;;;;0.47;0.43;;;22.70;57.00;;;;;;6229126;28;20022;-66
2022/08/03 10:52:55;;;;;;;0.40;0.30;;;22.70;57.00;;;;;;6248793;28;20028;-67
2022/08/03 10:59:14;;;;;;;0.50;0.43;;;22.70;57.00;;;;;;6224341;28;20026;-67
2022/08/03 11:02:15;;;;;;;0.30;0.30;;;22.70;57.00;;;;;;6209975;28;20037;-67
2022/08/03 11:05:27;;;;;;;0.55;0.47;;;22.70;57.00;;;;;;6214732;28;20024;-66
2022/08/03 11:08:31;;;;;;;0.40;0.40;;;22.70;57.00;;;;;;6247000;28;20029;-66
2022/08/03 11:11:31;;;;;;;0.30;0.30;;;22.70;57.00;;;;;;6230974;28;20045;-66
2022/08/03 11:14:46;;;;;;;0.30;0.30;;;22.70;57.00;;;;;;6223991;28;20041;-67
2022/08/03 11:18:10;;;;;;;0.40;0.40;;;22.70;57.00;;;;;;6199116;28;20030;-67
2022/08/03 11:21:11;;;;;;;0.97;0.40;;;22.70;57.00;;;;;;6224661;28;20030;-66
2022/08/03 11:24:50;;;;;;;0.60;0.50;;;22.70;57.10;;;;;;6244108;28;20081;-67
2022/08/03 11:28:39;;;;;;;0.35;0.35;;;22.70;57.00;;;;;;6214101;28;20438;-67
2022/08/03 11:31:45;;;;;;;0.47;0.45;;;22.70;57.00;;;;;;6232089;28;20041;-67
2022/08/03 11:35:24;;;;;;;0.40;0.40;;;22.70;57.00;;;;;;6223329;28;20068;-67
2022/08/03 11:38:24;;;;;;;0.60;0.50;;;22.70;57.00;;;;;;6187852;28;20153;-67
2022/08/03 11:41:34;;;;;;;0.40;0.40;;;22.70;57.00;;;;;;6222376;28;20427;-67
2022/08/03 11:44:41;;;;;;;0.20;0.20;;;22.70;57.00;;;;;;6247592;28;20029;-66
2022/08/03 11:47:43;;;;;;;0.40;0.40;;;22.70;57.00;;;;;;6225236;28;20022;-66
2022/08/03 11:50:44;;;;;;;0.30;0.30;;;22.70;57.00;;;;;;6226415;28;20033;-66
2022/08/03 11:53:46;;;;;;;0.35;0.35;;;22.70;57.00;;;;;;6246725;28;20052;-66
2022/08/03 11:56:49;;;;;;;0.60;0.50;;;22.70;57.00;;;;;;6234436;28;20030;-66
2022/08/03 11:59:50;;;;;;;0.65;0.30;;;22.70;57.00;;;;;;6221963;28;20730;-66
2022/08/03 12:03:01;;;;;;;0.52;0.40;;;22.70;57.00;;;;;;6242924;28;20040;-67
2022/08/03 12:06:03;;;;;;;0.40;0.38;;;22.70;57.00;;;;;;6241118;28;20521;-66
2022/08/03 12:09:15;;;;;;;0.25;0.25;;;22.70;57.00;;;;;;6222497;28;20084;-66
2022/08/03 12:12:15;;;;;;;0.32;0.30;;;22.70;57.00;;;;;;6236639;28;20075;-67
2022/08/03 12:15:23;;;;;;;0.35;0.35;;;22.70;57.00;;;;;;6246670;28;20022;-67
2022/08/03 12:18:24;;;;;;;0.40;0.40;;;22.70;57.00;;;;;;6223257;28;20088;-67
2022/08/03 12:21:26;;;;;;;0.20;0.20;;;22.70;57.00;;;;;;6227738;28;20204;-67
2022/08/03 12:24:40;;;;;;;0.40;0.40;;;22.70;57.00;;;;;;6240897;28;20053;-67
2022/08/03 12:27:40;;;;;;;0.50;0.45;;;22.70;57.00;;;;;;6220680;28;20072;-66
2022/08/03 12:30:42;;;;;;;0.30;0.30;;;22.70;57.00;;;;;;6222293;28;20022;-66
2022/08/03 12:33:57;;;;;;;0.30;0.30;;;22.70;57.00;;;;;;6223018;28;20447;-66
2022/08/03 12:36:58;;;;;;;0.38;0.38;;;22.70;57.00;;;;;;6221252;28;20030;-66
2022/08/03 12:40:00;;;;;;;0.47;0.40;;;22.70;57.00;;;;;;6222271;28;20044;-66
2022/08/03 12:43:09;;;;;;;0.40;0.32;;;22.70;57.00;;;;;;6238041;28;20041;-66
2022/08/03 12:46:13;;;;;;;0.40;0.40;;;22.70;57.00;;;;;;6245746;28;20056;-66
2022/08/03 12:49:17;;;;;;;0.40;0.40;;;22.70;57.00;;;;;;6221498;28;20080;-67
2022/08/03 12:52:19;;;;;;;0.40;0.30;;;22.70;57.00;;;;;;6230561;28;20057;-67
2022/08/03 12:55:21;;;;;;;0.30;0.30;;;22.70;57.00;;;;;;6246248;28;20053;-67
2022/08/03 12:58:33;;;;;;;0.20;0.20;;;22.70;57.00;;;;;;6227924;28;20030;-67
2022/08/03 13:01:37;;;;;;;0.40;0.40;;;22.70;57.00;;;;;;6223528;28;20036;-67
2022/08/03 13:04:37;;;;;;;0.30;0.30;;;22.70;57.00;;;;;;6244827;28;20488;-66
2022/08/03 13:07:43;;;;;;;0.30;0.30;;;22.70;57.00;;;;;;6234997;28;20037;-66
2022/08/03 13:10:44;;;;;;;0.40;0.40;;;22.70;57.00;;;;;;6221036;28;20025;-66
2022/08/03 13:13:46;;;;;;;0.38;0.38;;;22.70;57.00;;;;;;6254678;28;20124;-67
2022/08/03 13:16:49;;;;;;;0.30;0.30;;;22.70;57.00;;;;;;6242410;28;20403;-67
2022/08/03 13:19:51;;;;;;;0.30;0.30;;;22.70;57.00;;;;;;6221036;28;20029;-67
2022/08/03 13:22:52;;;;;;;0.40;0.40;;;22.70;57.00;;;;;;6229630;28;20056;-66
2022/08/03 13:25:52;;;;;;;0.50;0.40;;;22.70;57.00;;;;;;6244570;28;20030;-66
2022/08/03 13:28:53;;;;;;;0.35;0.35;;;22.70;57.00;;;;;;6226967;28;20029;-66
2022/08/03 13:31:54;;;;;;;0.30;0.30;;;22.70;57.00;;;;;;6219386;28;20064;-66
2022/08/03 13:34:54;;;;;;;0.25;0.25;;;22.70;57.00;;;;;;6219912;28;20703;-66
2022/08/03 13:37:55;;;;;;;0.40;0.30;;;22.70;57.00;;;;;;6228536;28;20029;-67
2022/08/03 13:40:55;;;;;;;0.30;0.30;;;22.70;57.10;;;;;;6245360;28;20029;-66
2022/08/03 13:43:56;;;;;;;0.47;0.40;;;22.70;57.00;;;;;;6228669;28;20084;-65
2022/08/03 13:46:59;;;;;;;0.30;0.30;;;22.70;57.10;;;;;;6220742;28;20037;-66
2022/08/03 13:50:00;;;;;;;0.30;0.30;;;22.70;57.00;;;;;;6244301;28;20057;-66
2022/08/03 13:53:00;;;;;;;0.30;0.30;;;22.70;57.10;;;;;;6238436;28;20488;-67
2022/08/03 13:56:01;;;;;;;0.40;0.32;;;22.70;57.10;;;;;;6220755;28;20030;-66
2022/08/03 13:59:01;;;;;;;0.22;0.22;;;22.70;57.10;;;;;;6250340;28;20514;-66
2022/08/03 14:02:03;;;;;;;1.40;0.60;;;22.70;57.10;;;;;;6211003;28;20023;-66
2022/08/03 14:05:04;;;;;;;0.40;0.40;;;22.70;57.00;;;;;;6240184;28;20057;-66
2022/08/03 14:08:06;;;;;;;0.30;0.30;;;22.70;57.00;;;;;;6239110;28;20030;-65
2022/08/03 14:11:06;;;;;;;0.32;0.30;;;22.70;57.10;;;;;;6221599;28;20067;-66
2022/08/03 14:14:07;;;;;;;0.38;0.35;;;22.70;57.10;;;;;;6238194;28;20488;-67
2022/08/03 14:17:08;;;;;;;0.40;0.40;;;22.70;57.10;;;;;;6249698;28;20037;-66
2022/08/03 14:20:11;;;;;;;0.40;0.40;;;22.70;57.10;;;;;;6228362;28;20029;-67
2022/08/03 14:23:12;;;;;;;0.40;0.40;;;22.70;57.10;;;;;;6228963;28;20045;-67
2022/08/03 14:26:13;;;;;;;0.40;0.40;;;22.70;57.10;;;;;;6249330;28;20033;-66
2022/08/03 14:29:14;;;;;;;0.25;0.25;;;22.70;57.10;;;;;;6237354;28;20084;-66
2022/08/03 14:32:14;;;;;;;0.20;0.20;;;22.70;57.10;;;;;;6224545;28;20030;-66
2022/08/03 14:35:15;;;;;;;0.30;0.30;;;22.70;57.10;;;;;;6224898;28;20061;-67
2022/08/03 14:38:16;;;;;;;0.25;0.25;;;22.70;57.10;;;;;;6227469;28;20040;-66
2022/08/03 14:41:16;;;;;;;0.43;0.35;;;22.70;57.10;;;;;;6249706;28;20025;-66
2022/08/03 14:44:17;;;;;;;0.32;0.30;;;22.70;57.10;;;;;;6236485;28;20041;-66
2022/08/03 14:47:18;;;;;;;0.30;0.30;;;22.70;57.10;;;;;;6224794;28;20029;-66
2022/08/03 14:50:18;;;;;;;0.60;0.40;;;22.70;57.10;;;;;;6241273;28;20025;-67
2022/08/03 14:53:19;;;;;;;0.20;0.20;;;22.70;57.10;;;;;;6247848;28;20071;-66
2022/08/03 14:56:20;;;;;;;0.10;0.10;;;22.70;57.10;;;;;;6224243;28;20041;-66
2022/08/03 14:59:20;;;;;;;0.30;0.30;;;22.70;57.10;;;;;;6233293;28;20029;-67
2022/08/03 15:02:21;;;;;;;0.30;0.30;;;22.70;57.10;;;;;;6227450;28;20033;-66
2022/08/03 15:05:21;;;;;;;0.20;0.20;;;22.70;57.10;;;;;;6239002;28;20470;-66
2022/08/03 15:08:24;;;;;;;0.20;0.20;;;22.70;57.10;;;;;;6247999;28;20076;-66
2022/08/03 15:11:24;;;;;;;0.60;0.30;;;22.70;57.10;;;;;;6224014;28;20032;-66
2022/08/03 15:14:25;;;;;;;0.40;0.32;;;22.70;57.10;;;;;;6231251;28;20075;-67
2022/08/03 15:17:26;;;;;;;0.30;0.30;;;22.70;57.10;;;;;;6247394;28;20021;-67
2022/08/03 15:20:26;;;;;;;0.40;0.30;;;22.70;57.10;;;;;;6232595;28;20029;-66
2022/08/03 15:23:27;;;;;;;0.40;0.40;;;22.70;57.10;;;;;;6221071;28;20423;-66
2022/08/03 15:26:27;;;;;;;0.30;0.30;;;22.70;57.10;;;;;;6223673;28;20092;-66
2022/08/03 15:29:28;;;;;;;0.30;0.30;;;22.70;57.10;;;;;;6223707;28;20534;-67
2022/08/03 15:32:28;;;;;;;0.45;0.30;;;22.70;57.10;;;;;;6238334;28;20115;-67
2022/08/03 15:35:29;;;;;;;0.22;0.20;;;22.70;57.10;;;;;;6223487;28;20030;-66
2022/08/03 15:38:30;;;;;;;0.30;0.30;;;22.70;57.10;;;;;;6223626;28;20033;-66
2022/08/03 15:41:31;;;;;;;0.30;0.30;;;22.70;57.10;;;;;;6244494;28;20092;-66
2022/08/03 15:44:31;;;;;;;0.30;0.30;;;22.70;57.10;;;;;;6242936;28;20064;-66
2022/08/03 15:47:32;;;;;;;0.50;0.38;;;22.70;57.10;;;;;;6223204;28;20026;-67
2022/08/03 15:50:33;;;;;;;0.32;0.30;;;22.70;57.10;;;;;;6249758;28;20361;-69
2022/08/03 15:53:33;;;;;;;0.30;0.30;;;22.70;57.10;;;;;;6247286;28;20064;-66
2022/08/03 15:56:34;;;;;;;0.22;0.22;;;22.70;57.10;;;;;;6227460;28;20080;-67
2022/08/03 15:59:35;;;;;;;0.25;0.25;;;22.70;57.10;;;;;;6225679;28;20443;-66
2022/08/03 16:02:35;;;;;;;0.20;0.20;;;22.70;57.10;;;;;;6203746;28;20046;-67
2022/08/03 16:05:36;;;;;;;0.30;0.30;;;22.70;57.10;;;;;;6218189;28;20030;-65
2022/08/03 16:08:37;;;;;;;0.30;0.30;;;22.70;57.10;;;;;;6247030;28;20087;-66